createdAt,value
2019-04-10T00:03:27.858Z,47.33
2019-04-10T00:07:34.711Z,40.93
2019-04-10T00:11:47.257Z,46.00
2019-04-10T00:15:59.720Z,45.90
2019-04-10T00:20:12.726Z,52.97
2019-04-10T00:24:26.045Z,50.80
2019-04-10T00:28:39.323Z,51.73
2019-04-10T00:32:52.301Z,51.03
2019-04-10T00:37:05.763Z,52.83
2019-04-10T00:41:18.280Z,57.67
2019-04-10T00:45:30.602Z,55.97
2019-04-10T00:49:44.095Z,59.03
2019-04-10T00:53:57.272Z,59.93
2019-04-10T00:58:09.989Z,62.43
2019-04-10T01:02:22.775Z,62.03
2019-04-10T01:06:36.570Z,62.47
2019-04-10T01:10:50.514Z,62.37
2019-04-10T01:15:03.664Z,68.93
2019-04-10T01:19:17.534Z,63.23
2019-04-10T01:23:30.893Z,72.20
2019-04-10T01:27:44.469Z,74.23
2019-04-10T01:31:56.892Z,75.77
2019-04-10T01:36:09.205Z,76.47
2019-04-10T01:40:23.278Z,80.17
2019-04-10T01:44:36.443Z,77.30
2019-04-10T01:48:49.860Z,71.70
2019-04-10T01:53:02.254Z,82.90
2019-04-10T01:57:15.140Z,83.17
2019-04-10T02:01:36.627Z,88.43
2019-04-10T02:05:49.247Z,83.90
2019-04-10T02:10:02.109Z,86.00
2019-04-10T02:14:14.577Z,81.00
2019-04-10T02:18:27.685Z,86.30
2019-04-10T02:22:40.544Z,84.13
2019-04-10T02:26:54.074Z,85.30
2019-04-10T02:31:07.106Z,75.63
2019-04-10T02:35:22.058Z,92.63
2019-04-10T02:39:40.155Z,90.97
2019-04-10T02:43:47.993Z,86.60
2019-04-10T02:48:01.688Z,93.43
2019-04-10T02:52:14.865Z,88.43
2019-04-10T02:56:28.527Z,85.63
2019-04-10T03:00:42.118Z,76.53
2019-04-10T03:04:55.205Z,85.23
2019-04-10T03:09:27.772Z,75.47
2019-04-10T03:13:23.948Z,75.83
2019-04-10T03:17:36.723Z,78.07
2019-04-10T03:21:49.555Z,87.30
2019-04-10T03:26:02.024Z,87.50
2019-04-10T03:30:15.436Z,84.20
2019-04-10T03:34:31.383Z,83.87
2019-04-10T03:38:55.253Z,78.77
2019-04-10T03:42:57.239Z,72.23
2019-04-10T03:47:09.932Z,72.40
2019-04-10T03:51:22.833Z,75.33
2019-04-10T03:55:36.830Z,66.13
2019-04-10T03:59:49.726Z,75.60
2019-04-10T04:04:02.689Z,79.87
2019-04-10T04:08:15.393Z,79.63
2019-04-10T04:12:28.722Z,88.20
2019-04-10T04:16:41.527Z,87.17
2019-04-10T04:20:55.048Z,75.83
2019-04-10T04:25:08.693Z,77.27
2019-04-10T04:29:22.589Z,78.27
2019-04-10T04:33:36.109Z,68.10
2019-04-10T04:37:48.859Z,60.63
2019-04-10T04:42:01.266Z,63.87
2019-04-10T04:46:14.134Z,58.47
2019-04-10T04:50:28.009Z,64.77
2019-04-10T04:54:41.509Z,54.23
2019-04-10T04:58:53.950Z,56.83
2019-04-10T05:03:06.314Z,60.93
2019-04-10T05:07:20.343Z,47.23
2019-04-10T05:11:34.173Z,49.60
2019-04-10T05:15:46.740Z,40.90
2019-04-10T05:19:59.110Z,43.63
2019-04-10T05:24:12.006Z,38.83
2019-04-10T05:28:24.600Z,35.60
2019-04-10T05:32:37.588Z,44.90
2019-04-10T05:36:51.624Z,52.97
2019-04-10T05:41:04.909Z,49.37
2019-04-10T05:45:17.704Z,54.23
2019-04-10T05:49:31.066Z,49.40
2019-04-10T05:53:43.698Z,43.20
2019-04-10T05:57:58.001Z,51.13
2019-04-10T06:02:10.176Z,55.90
2019-04-10T06:06:22.589Z,53.07
2019-04-10T06:10:35.542Z,44.63
2019-04-10T06:14:48.511Z,45.00
2019-04-10T06:19:01.818Z,49.60
2019-04-10T06:23:15.001Z,57.73
2019-04-10T06:27:28.309Z,49.20
2019-04-10T06:31:41.020Z,47.80
2019-04-10T06:35:55.071Z,56.67
2019-04-10T06:40:18.145Z,50.17
2019-04-10T06:44:22.215Z,50.70
2019-04-10T06:48:36.187Z,55.67
2019-04-10T06:52:49.296Z,58.50
2019-04-10T06:57:02.760Z,55.40
2019-04-10T07:01:15.262Z,56.20
2019-04-10T07:05:37.105Z,55.23
2019-04-10T07:09:42.183Z,54.90
2019-04-10T07:13:55.214Z,59.93
2019-04-10T07:18:14.454Z,65.80
2019-04-10T07:22:23.130Z,66.13
2019-04-10T07:26:41.435Z,63.00
2019-04-10T07:30:50.263Z,66.50
2019-04-10T07:35:03.278Z,66.60
2019-04-10T07:39:17.246Z,64.10
2019-04-10T07:43:30.639Z,66.73
2019-04-10T07:47:44.100Z,66.97
2019-04-10T07:51:56.634Z,67.83
2019-04-10T07:56:13.551Z,57.13
2019-04-10T08:00:25.191Z,56.77
2019-04-10T08:04:38.085Z,55.23
2019-04-10T08:08:51.247Z,54.33
2019-04-10T08:13:04.534Z,58.70
2019-04-10T08:17:17.142Z,54.47
2019-04-10T08:21:29.566Z,54.83
2019-04-10T08:25:43.106Z,52.57
2019-04-10T08:29:56.872Z,50.43
2019-04-10T08:34:09.605Z,48.67
2019-04-10T08:38:22.488Z,52.50
2019-04-10T08:42:35.251Z,47.33
2019-04-10T08:46:48.289Z,43.10
2019-04-10T08:51:01.088Z,44.80
2019-04-10T08:55:13.522Z,46.67
2019-04-10T08:59:26.301Z,46.47
2019-04-10T09:03:39.211Z,39.13
2019-04-10T09:07:52.711Z,38.93
2019-04-10T09:12:05.706Z,35.70
2019-04-10T09:16:18.413Z,30.67
2019-04-10T09:20:31.307Z,28.57
2019-04-10T09:24:44.625Z,27.03
2019-04-10T09:28:57.357Z,27.33
2019-04-10T09:33:19.930Z,24.97
2019-04-10T09:37:24.640Z,24.87
2019-04-10T09:41:38.228Z,22.10
2019-04-10T09:45:51.474Z,22.23
2019-04-10T09:50:05.705Z,26.30
2019-04-10T09:54:18.090Z,20.03
2019-04-10T09:58:31.775Z,19.20
2019-04-10T10:02:45.187Z,19.23
2019-04-10T10:06:57.584Z,17.07
2019-04-10T10:11:09.939Z,19.27
2019-04-10T10:15:22.689Z,15.73
2019-04-10T10:19:36.254Z,15.63
2019-04-10T10:23:49.770Z,16.40
2019-04-10T10:28:02.870Z,14.83
2019-04-10T10:32:15.564Z,14.20
2019-04-10T10:36:36.778Z,14.27
2019-04-10T10:40:43.584Z,15.67
2019-04-10T10:44:56.453Z,15.07
2019-04-10T10:49:08.914Z,14.90
2019-04-10T10:53:22.010Z,12.53
2019-04-10T10:57:35.334Z,15.63
2019-04-10T11:01:48.482Z,15.93
2019-04-10T11:06:02.420Z,15.43
2019-04-10T11:10:19.649Z,17.13
2019-04-10T11:14:29.918Z,14.50
2019-04-10T11:18:42.684Z,12.30
2019-04-10T11:22:55.856Z,14.30
2019-04-10T11:27:09.921Z,13.90
2019-04-10T11:31:23.798Z,13.70
2019-04-10T11:35:37.331Z,14.20
2019-04-10T11:39:51.587Z,15.33
2019-04-10T11:44:04.392Z,13.93
2019-04-10T11:48:18.656Z,13.33
2019-04-10T11:56:47.250Z,12.53
2019-04-10T12:01:00.155Z,12.37
2019-04-10T12:05:18.497Z,11.73
2019-04-10T12:13:41.384Z,10.97
2019-04-10T12:17:56.165Z,7.93
2019-04-10T12:22:09.506Z,9.63
2019-04-10T12:26:22.069Z,9.87
2019-04-10T12:30:35.283Z,13.33
2019-04-10T12:34:48.630Z,14.43
2019-04-10T12:39:02.370Z,14.93
2019-04-10T12:43:14.740Z,15.17
2019-04-10T12:47:28.004Z,17.07
2019-04-10T12:51:41.470Z,18.63
2019-04-10T12:55:54.048Z,18.33
2019-04-10T13:00:10.272Z,21.23
2019-04-10T13:04:22.769Z,22.03
2019-04-10T13:08:53.425Z,24.17
2019-04-10T13:12:49.972Z,22.60
2019-04-10T13:17:02.920Z,24.03
2019-04-10T13:21:16.207Z,27.03
2019-04-10T13:25:28.656Z,29.37
2019-04-10T13:29:42.631Z,27.63
2019-04-10T13:33:55.347Z,27.27
2019-04-10T13:38:08.770Z,23.50
2019-04-10T13:42:21.263Z,24.87
2019-04-10T13:46:33.961Z,27.17
2019-04-10T13:50:48.675Z,21.17
2019-04-10T13:55:01.445Z,16.13
2019-04-10T13:59:15.304Z,17.07
2019-04-10T14:03:28.054Z,18.47
2019-04-10T14:07:40.841Z,20.83
2019-04-10T14:11:53.530Z,17.80
2019-04-10T14:16:06.515Z,17.17
2019-04-10T14:20:21.659Z,20.93
2019-04-10T14:24:42.851Z,17.73
2019-04-10T14:28:49.392Z,17.13
2019-04-10T14:33:02.939Z,16.90
2019-04-10T14:37:15.369Z,18.17
2019-04-10T14:41:27.778Z,15.57
2019-04-10T14:45:41.585Z,15.77
2019-04-10T14:49:55.421Z,16.13
2019-04-10T14:54:09.818Z,15.93
2019-04-10T14:58:28.085Z,15.70
2019-04-10T15:02:36.949Z,16.53
2019-04-10T15:06:50.011Z,18.07
2019-04-10T15:11:02.833Z,20.30
2019-04-10T15:15:16.402Z,23.43
2019-04-10T15:19:29.449Z,25.13
2019-04-10T15:23:42.608Z,23.50
2019-04-10T15:27:55.105Z,28.37
2019-04-10T15:32:08.472Z,24.73
2019-04-10T15:36:22.062Z,28.80
2019-04-10T15:40:34.497Z,29.57
2019-04-10T15:44:48.152Z,34.50
2019-04-10T15:49:01.040Z,31.93
2019-04-10T15:53:13.496Z,32.87
2019-04-10T15:57:26.899Z,30.37
2019-04-10T16:01:39.352Z,33.53
2019-04-10T16:05:52.293Z,36.00
2019-04-10T16:10:33.028Z,32.50
2019-04-10T16:14:46.590Z,32.97
2019-04-10T16:19:18.270Z,28.93
2019-04-10T16:23:52.772Z,33.40
2019-04-10T16:28:06.420Z,37.50
2019-04-10T16:32:19.061Z,36.53
2019-04-10T16:36:33.200Z,32.63
2019-04-10T16:40:46.046Z,36.37
2019-04-10T16:44:59.657Z,35.53
2019-04-10T16:49:12.756Z,32.77
2019-04-10T16:53:25.764Z,32.27
2019-04-10T16:57:38.788Z,33.43
2019-04-10T17:01:51.202Z,32.97
2019-04-10T17:06:04.046Z,31.60
2019-04-10T17:10:23.056Z,30.90
2019-04-10T17:14:32.792Z,29.63
2019-04-10T17:18:45.514Z,29.80
2019-04-10T17:22:58.372Z,26.47
2019-04-10T17:27:11.244Z,31.70
2019-04-10T17:31:24.640Z,31.90
2019-04-10T17:35:37.914Z,31.03
2019-04-10T17:39:51.462Z,30.67
2019-04-10T17:44:05.454Z,32.87
2019-04-10T17:48:18.108Z,33.33
2019-04-10T17:52:33.074Z,34.00
2019-04-10T17:56:46.518Z,33.33
2019-04-10T18:01:01.775Z,34.23
2019-04-10T18:05:14.822Z,34.83
2019-04-10T18:09:28.840Z,33.60
2019-04-10T18:13:42.699Z,36.63
2019-04-10T18:17:55.583Z,37.10
2019-04-10T18:22:08.397Z,39.77
2019-04-10T18:26:21.157Z,42.13
2019-04-10T18:30:35.333Z,44.77
2019-04-10T18:34:48.194Z,43.00
2019-04-10T18:39:00.516Z,46.23
2019-04-10T18:43:14.007Z,44.93
2019-04-10T18:47:27.115Z,48.47
2019-04-10T18:51:40.364Z,47.73
2019-04-10T18:55:53.036Z,50.37
2019-04-10T19:00:26.291Z,47.47
2019-04-10T19:04:47.394Z,52.50
2019-04-10T19:09:08.225Z,51.63
2019-04-10T19:13:14.990Z,54.80
2019-04-10T19:17:27.726Z,57.43
2019-04-10T19:21:40.455Z,54.70
2019-04-10T19:25:53.252Z,52.93
2019-04-10T19:30:08.485Z,55.10
2019-04-10T19:34:21.296Z,53.93
2019-04-10T19:38:33.749Z,54.47
2019-04-10T19:42:46.130Z,49.80
2019-04-10T19:46:59.061Z,55.37
2019-04-10T19:51:12.115Z,49.03
2019-04-10T19:55:24.909Z,52.20
2019-04-10T19:59:37.362Z,48.03
2019-04-10T20:03:50.250Z,52.73
2019-04-10T20:08:03.277Z,47.87
2019-04-10T20:12:16.155Z,47.33
2019-04-10T20:16:29.550Z,50.00
2019-04-10T20:20:43.604Z,51.13
2019-04-10T20:24:56.877Z,49.27
2019-04-10T20:29:10.798Z,51.20
2019-04-10T20:33:23.545Z,47.67
2019-04-10T20:37:36.599Z,45.90
2019-04-10T20:41:53.719Z,47.17
2019-04-10T20:46:03.865Z,46.63
2019-04-10T20:50:17.981Z,50.40
2019-04-10T20:54:30.879Z,44.50
2019-04-10T20:58:44.632Z,47.30
2019-04-10T21:02:58.584Z,49.20
2019-04-10T21:07:11.264Z,48.00
2019-04-10T21:11:24.724Z,46.83
2019-04-10T21:15:37.617Z,45.80
2019-04-10T21:19:51.545Z,52.03
2019-04-10T21:24:04.878Z,44.73
2019-04-10T21:28:18.380Z,43.83
2019-04-10T21:32:53.708Z,47.80
2019-04-10T21:37:06.661Z,48.67
2019-04-10T21:41:20.048Z,52.03
2019-04-10T21:45:32.737Z,51.00
2019-04-10T21:49:46.399Z,41.53
2019-04-10T21:53:59.964Z,42.47
2019-04-10T21:58:13.081Z,41.03
2019-04-10T22:02:27.296Z,42.80
2019-04-10T22:06:47.993Z,43.30
2019-04-10T22:11:00.827Z,48.33
2019-04-10T22:15:39.288Z,51.27
2019-04-10T22:19:52.847Z,52.07
2019-04-10T22:24:05.768Z,50.73
2019-04-10T22:28:19.032Z,47.40
2019-04-10T22:32:33.150Z,47.50
2019-04-10T22:36:47.197Z,48.50
2019-04-10T22:40:59.568Z,47.57
2019-04-10T22:45:25.865Z,49.30
2019-04-10T22:49:39.332Z,50.33
2019-04-10T22:53:52.141Z,52.57
2019-04-10T22:58:04.706Z,50.70
2019-04-10T23:02:17.144Z,49.83
2019-04-10T23:06:29.919Z,46.40
2019-04-10T23:10:43.386Z,47.23
2019-04-10T23:14:55.893Z,44.07
2019-04-10T23:19:09.869Z,42.27
2019-04-10T23:23:23.125Z,41.20
2019-04-10T23:27:35.735Z,42.57
2019-04-10T23:31:48.481Z,43.47
2019-04-10T23:36:02.042Z,42.20
2019-04-10T23:40:15.382Z,35.87
2019-04-10T23:44:28.831Z,35.93
2019-04-10T23:48:41.672Z,39.57
2019-04-10T23:52:54.172Z,36.67
2019-04-10T23:57:07.370Z,34.23
